Malone, FL

8:27 AM CST on February 22, 2017 (GMT -0600)
Malone School WeatherSTEM | | Change Station

Elev 157 ft 30.95 °N, 85.17 °W | Updated 36 seconds ago

Rain
Rain
61.1 °F
Feels Like 61.1 °F
N
2.0
Wind Variable Wind from ENE

Today
High -- | Low -- °F
--% Chance of Precip.
Yesterday
High -- | Low -- °F
Precip. -- in
Pressure 29.76 in
Visibility 4.0 miles
Clouds Overcast 500 ft
Dew Point 61 °F
Humidity 98%
Rainfall 0.29 in
Snow Depth Not available.
6:14 AM 5:34 PM
Waning Crescent, 17% visible
METAR KMAI 221353Z AUTO 04007KT 4SM -RA BR OVC005 16/16 A2976 RMK AO2 SLP076 P0021 T01610161
Pressure 29.76 in
Visibility 4.0 miles
Clouds Overcast 500 ft
Dew Point 61 °F
Humidity 98%
Rainfall 0.29 in
Snow Depth Not available.
6:14 AM 5:34 PM
Waning Crescent, 17% visible
METAR KMAI 221353Z AUTO 04007KT 4SM -RA BR OVC005 16/16 A2976 RMK AO2 SLP076 P0021 T01610161

Get Your Daily Forecast Email!

Thanks for signing up!

Be on the lookout for a verification email in your inbox.

You'll start receiving the daily forecast at 8 AM.

×

10-Day Weather Forecast

Almanac

Astronomy

Feb. 22, 2017 Rise Set
Actual Time
Civil Twilight
Nautical Twilight
Astronomical Twilight
Moon
Length of Visible Light
Length of Day
Tomorrow will be .
, % of the Moon is Illuminated

Today's Extremes

State Highs State Lows

Community

WunderPhotos

Upload Photos

1,962,540 photos uploaded!

WunderBlog® & News

Nearby

Air Quality

  Air Quality AQ Index Pollutant
Not available.

Snow Depth

Station Depth Elevation

Earthquake Activity

City Distance Mag. Time & Date
Minimum magnitude displayed is 2.5.

Coastal Water Temperatures

Place Temperature

Stations

Nearby Weather Stations

Station Location Temp. Windchill Dew Point Humidity Wind Precip. Elev Updated Type
                   

Watches & Warnings

There are currently no watches in effect.